Time;durP1;ratioP1;P1;durP2;ratioP2;P2;SDS_P1;SDS_P2;PMS_P1;PMS_P2;Temp;Humidity;BMP_temperature;BMP_pressure;BME280_temperature;BME280_humidity;BME280_pressure;Samples;Min_cycle;Max_cycle;Signal;HPM_P1;HPM_P2
2021/12/15 00:01:48;;;;;;;196.30;95.03;;;;;;;;;;5093163;28;20036;-62
2021/12/15 00:04:15;;;;;;;194.48;97.55;;;;;;;;;;5092905;28;20457;-62
2021/12/15 00:06:42;;;;;;;203.30;99.35;;;;;;;;;;5092467;28;20028;-62
2021/12/15 00:09:11;;;;;;;238.68;112.43;;;;;;;;;;5092885;28;20102;-62
2021/12/15 00:11:38;;;;;;;249.40;119.47;;;;;;;;;;5091838;28;20032;-62
2021/12/15 00:14:09;;;;;;;311.80;130.75;;;;;;;;;;5092924;28;20032;-62
2021/12/15 00:16:36;;;;;;;390.45;154.35;;;;;;;;;;5091713;28;20139;-62
2021/12/15 00:19:03;;;;;;;356.30;161.20;;;;;;;;;;5092980;28;20103;-62
2021/12/15 00:21:30;;;;;;;298.20;133.70;;;;;;;;;;5093042;28;20119;-62
2021/12/15 00:23:57;;;;;;;380.35;134.48;;;;;;;;;;5092974;28;20016;-62
2021/12/15 00:26:23;;;;;;;340.88;126.10;;;;;;;;;;5092912;28;20036;-62
2021/12/15 00:28:55;;;;;;;346.48;122.60;;;;;;;;;;5093134;28;20031;-63
2021/12/15 00:31:21;;;;;;;289.63;126.70;;;;;;;;;;5093122;28;20102;-62
2021/12/15 00:33:48;;;;;;;310.75;133.63;;;;;;;;;;5093104;28;20020;-62
2021/12/15 00:36:14;;;;;;;323.75;142.30;;;;;;;;;;5093006;28;20020;-62
2021/12/15 00:38:41;;;;;;;320.10;138.90;;;;;;;;;;5093239;28;20117;-62
2021/12/15 00:41:08;;;;;;;308.15;136.32;;;;;;;;;;5091610;28;20126;-62
2021/12/15 00:43:40;;;;;;;326.55;136.68;;;;;;;;;;5093194;28;20111;-62
2021/12/15 00:46:07;;;;;;;349.85;138.20;;;;;;;;;;5092993;28;20028;-62
2021/12/15 00:48:34;;;;;;;374.17;135.30;;;;;;;;;;5092877;28;20024;-62
2021/12/15 00:51:00;;;;;;;371.83;121.13;;;;;;;;;;5092488;28;20135;-62
2021/12/15 00:53:27;;;;;;;394.08;116.35;;;;;;;;;;5093175;28;20116;-62
2021/12/15 00:55:53;;;;;;;335.10;109.75;;;;;;;;;;5093151;28;20107;-62
2021/12/15 00:58:19;;;;;;;274.73;108.93;;;;;;;;;;5092844;28;20036;-62
2021/12/15 01:00:51;;;;;;;266.45;104.65;;;;;;;;;;5091704;28;20392;-62
2021/12/15 01:03:17;;;;;;;245.75;100.78;;;;;;;;;;5092848;28;20031;-62
2021/12/15 01:05:45;;;;;;;255.00;100.97;;;;;;;;;;5092806;28;20024;-62
2021/12/15 01:08:16;;;;;;;311.45;107.60;;;;;;;;;;5092757;28;20024;-62
2021/12/15 01:10:57;;;;;;;366.98;103.30;;;;;;;;;;5092564;28;20024;-62
2021/12/15 01:21:42;;;;;;;347.80;100.88;;;;;;;;;;5096124;28;20082;-62
2021/12/15 01:24:08;;;;;;;289.40;98.43;;;;;;;;;;5096426;28;20103;-62
2021/12/15 01:26:34;;;;;;;330.23;103.82;;;;;;;;;;5096298;28;20464;-62
2021/12/15 01:29:01;;;;;;;325.77;102.40;;;;;;;;;;5096266;28;20111;-62
2021/12/15 01:31:27;;;;;;;290.45;105.70;;;;;;;;;;5095897;28;20103;-62
2021/12/15 01:33:54;;;;;;;292.02;104.50;;;;;;;;;;5096169;28;20055;-62
2021/12/15 01:36:20;;;;;;;292.00;103.75;;;;;;;;;;5096134;28;20103;-62
2021/12/15 01:38:47;;;;;;;323.73;105.97;;;;;;;;;;5096088;28;20177;-63
2021/12/15 01:41:20;;;;;;;404.83;110.97;;;;;;;;;;5095943;28;20089;-62
2021/12/15 01:46:51;;;;;;;350.40;111.45;;;;;;;;;;5095947;28;20115;-63
2021/12/15 01:49:26;;;;;;;351.00;119.65;;;;;;;;;;5095428;28;20170;-63
2021/12/15 01:51:52;;;;;;;345.85;126.13;;;;;;;;;;5094525;28;20533;-62
2021/12/15 01:54:19;;;;;;;352.75;128.73;;;;;;;;;;5095746;28;20485;-62
2021/12/15 01:56:46;;;;;;;368.98;128.82;;;;;;;;;;5095738;28;20099;-62
2021/12/15 01:59:12;;;;;;;339.48;123.82;;;;;;;;;;5095955;28;20054;-62
2021/12/15 02:01:39;;;;;;;345.88;122.65;;;;;;;;;;5095304;28;20039;-62
2021/12/15 02:04:05;;;;;;;299.67;115.88;;;;;;;;;;5095576;28;20017;-62
2021/12/15 02:06:31;;;;;;;280.38;109.72;;;;;;;;;;5094520;28;20497;-62
2021/12/15 02:08:58;;;;;;;275.17;108.05;;;;;;;;;;5095737;28;20141;-62
2021/12/15 02:11:25;;;;;;;311.92;116.80;;;;;;;;;;5095496;28;20388;-62
2021/12/15 02:13:53;;;;;;;293.17;113.32;;;;;;;;;;5095386;28;20020;-62
2021/12/15 02:16:21;;;;;;;260.15;107.72;;;;;;;;;;5095337;28;20062;-62
2021/12/15 02:18:48;;;;;;;262.23;106.47;;;;;;;;;;5095304;28;20090;-62
2021/12/15 02:21:19;;;;;;;256.92;101.47;;;;;;;;;;5094899;28;20028;-62
2021/12/15 02:23:51;;;;;;;250.30;100.90;;;;;;;;;;5095306;28;20020;-62
2021/12/15 02:26:20;;;;;;;267.70;99.75;;;;;;;;;;5095158;28;20023;-62
2021/12/15 02:28:48;;;;;;;317.70;108.82;;;;;;;;;;5094138;28;20024;-62
2021/12/15 02:31:33;;;;;;;311.45;118.13;;;;;;;;;;5093773;28;20173;-62
2021/12/15 02:34:21;;;;;;;358.67;121.03;;;;;;;;;;5095092;28;20027;-62
2021/12/15 02:37:30;;;;;;;318.90;120.75;;;;;;;;;;5094959;28;20082;-62
2021/12/15 02:39:38;;;;;;;327.20;120.82;;;;;;;;;;5091444;28;20025;-62
2021/12/15 02:42:04;;;;;;;328.25;119.78;;;;;;;;;;5094768;28;20031;-62
2021/12/15 02:44:31;;;;;;;323.27;116.95;;;;;;;;;;5095102;28;20108;-62
2021/12/15 02:46:57;;;;;;;292.08;113.30;;;;;;;;;;5094724;28;20035;-62
2021/12/15 02:49:29;;;;;;;293.10;113.40;;;;;;;;;;5094739;28;20051;-62
2021/12/15 02:51:57;;;;;;;285.23;109.45;;;;;;;;;;5094775;28;20031;-62
2021/12/15 02:54:24;;;;;;;304.98;116.47;;;;;;;;;;5094625;28;20032;-62
2021/12/15 02:56:53;;;;;;;289.77;112.50;;;;;;;;;;5094305;28;20020;-62
2021/12/15 02:59:24;;;;;;;255.07;104.63;;;;;;;;;;5094545;28;20028;-62
2021/12/15 03:02:08;;;;;;;252.50;106.95;;;;;;;;;;5094473;28;20468;-62
2021/12/15 03:05:03;;;;;;;243.05;106.43;;;;;;;;;;5094425;28;20020;-62
2021/12/15 03:07:38;;;;;;;228.95;99.22;;;;;;;;;;5094486;28;20432;-62
2021/12/15 03:15:36;;;;;;;245.60;102.45;;;;;;;;;;5094177;28;20081;-62
2021/12/15 03:18:06;;;;;;;244.70;105.82;;;;;;;;;;5094131;28;20047;-62
2021/12/15 03:20:35;;;;;;;255.52;107.95;;;;;;;;;;5094074;28;20028;-62
2021/12/15 03:23:02;;;;;;;247.73;109.43;;;;;;;;;;5092765;28;20031;-62
2021/12/15 03:25:30;;;;;;;239.57;103.95;;;;;;;;;;5093732;28;20380;-62
2021/12/15 03:33:37;;;;;;;231.68;100.70;;;;;;;;;;5093672;28;20063;-62
2021/12/15 03:36:10;;;;;;;214.82;94.65;;;;;;;;;;5093899;28;20063;-62
2021/12/15 03:38:37;;;;;;;222.13;99.40;;;;;;;;;;5093871;28;20465;-62
2021/12/15 03:41:04;;;;;;;232.73;103.25;;;;;;;;;;5093516;28;20032;-62
2021/12/15 03:43:31;;;;;;;215.65;99.15;;;;;;;;;;5093630;28;20585;-62
2021/12/15 03:46:03;;;;;;;221.98;102.82;;;;;;;;;;5093742;28;20380;-62
2021/12/15 03:48:32;;;;;;;206.80;98.53;;;;;;;;;;5093690;28;20465;-62
2021/12/15 03:50:59;;;;;;;206.38;96.28;;;;;;;;;;5091808;28;20492;-62
2021/12/15 03:53:26;;;;;;;211.43;97.88;;;;;;;;;;5093496;28;20036;-62
2021/12/15 03:55:54;;;;;;;216.75;96.63;;;;;;;;;;5093616;28;20078;-62
2021/12/15 03:58:24;;;;;;;198.15;91.47;;;;;;;;;;5093478;28;20024;-62
2021/12/15 04:00:58;;;;;;;201.60;95.03;;;;;;;;;;5093448;28;20039;-61
2021/12/15 04:03:27;;;;;;;193.82;94.78;;;;;;;;;;5093145;28;20431;-62
2021/12/15 04:05:54;;;;;;;209.93;101.75;;;;;;;;;;5093402;28;20108;-62
2021/12/15 04:08:21;;;;;;;217.07;102.03;;;;;;;;;;5093321;28;20076;-62
2021/12/15 04:10:48;;;;;;;241.32;109.78;;;;;;;;;;5093288;28;20028;-61
2021/12/15 04:13:14;;;;;;;223.93;108.20;;;;;;;;;;5093271;28;20052;-61
2021/12/15 04:15:54;;;;;;;233.57;107.25;;;;;;;;;;5093273;28;20024;-62
2021/12/15 04:18:21;;;;;;;241.05;104.95;;;;;;;;;;5092010;28;20054;-62
2021/12/15 04:20:47;;;;;;;229.98;105.28;;;;;;;;;;5093116;28;20070;-62
2021/12/15 04:23:19;;;;;;;221.25;101.60;;;;;;;;;;5092865;28;20086;-61
2021/12/15 04:25:45;;;;;;;;;;;;;;;;;;5093603;28;20016;-61
2021/12/15 04:28:17;;;;;;;214.75;96.75;;;;;;;;;;5093412;28;19957;-61
2021/12/15 04:30:54;;;;;;;214.45;98.45;;;;;;;;;;5093170;28;20024;-62
2021/12/15 04:33:26;;;;;;;204.20;97.70;;;;;;;;;;5093086;28;20107;-62
2021/12/15 04:35:54;;;;;;;219.50;97.85;;;;;;;;;;5093095;28;20021;-62
2021/12/15 04:38:21;;;;;;;214.90;97.70;;;;;;;;;;5091733;28;20444;-62
2021/12/15 04:40:48;;;;;;;209.75;97.53;;;;;;;;;;5091579;28;20037;-62
2021/12/15 04:43:14;;;;;;;206.38;94.35;;;;;;;;;;5092989;28;20035;-61
2021/12/15 04:45:40;;;;;;;212.07;96.97;;;;;;;;;;5092757;28;20380;-62
2021/12/15 04:48:07;;;;;;;207.30;97.15;;;;;;;;;;5091630;28;20120;-61
2021/12/15 04:50:33;;;;;;;198.48;91.05;;;;;;;;;;5092930;28;20056;-61
2021/12/15 04:53:02;;;;;;;211.07;95.15;;;;;;;;;;5096305;28;20024;-61
2021/12/15 04:55:29;;;;;;;201.05;95.72;;;;;;;;;;5096974;28;20105;-62
2021/12/15 04:57:57;;;;;;;210.10;95.53;;;;;;;;;;5096954;28;20024;-62
2021/12/15 05:00:26;;;;;;;201.57;92.43;;;;;;;;;;5096980;28;20512;-62
2021/12/15 05:02:52;;;;;;;193.52;86.65;;;;;;;;;;5096804;28;20035;-62
2021/12/15 05:05:19;;;;;;;188.35;86.75;;;;;;;;;;5095379;28;20379;-62
2021/12/15 05:07:45;;;;;;;179.43;82.97;;;;;;;;;;5096662;28;20028;-62
2021/12/15 05:10:14;;;;;;;181.45;82.88;;;;;;;;;;5096658;28;20099;-62
2021/12/15 05:12:41;;;;;;;169.38;77.57;;;;;;;;;;5096576;28;20106;-62
2021/12/15 05:15:08;;;;;;;172.18;79.28;;;;;;;;;;5096305;28;20024;-62
2021/12/15 05:17:35;;;;;;;170.05;77.70;;;;;;;;;;5096562;28;20518;-62
2021/12/15 05:20:04;;;;;;;162.90;76.72;;;;;;;;;;5096453;28;20028;-62
2021/12/15 05:22:31;;;;;;;153.10;69.78;;;;;;;;;;5096329;28;20072;-62
2021/12/15 05:24:57;;;;;;;140.90;65.45;;;;;;;;;;5096030;28;20028;-61
2021/12/15 05:27:24;;;;;;;147.23;64.65;;;;;;;;;;5096391;28;20028;-62
2021/12/15 05:29:50;;;;;;;143.32;64.18;;;;;;;;;;5094969;28;20032;-61
2021/12/15 05:32:18;;;;;;;136.43;60.47;;;;;;;;;;5096228;28;20464;-62
2021/12/15 05:34:46;;;;;;;145.98;63.22;;;;;;;;;;5096113;28;20039;-62
2021/12/15 05:37:21;;;;;;;142.32;63.20;;;;;;;;;;5096214;28;20460;-61
2021/12/15 05:39:48;;;;;;;139.75;64.65;;;;;;;;;;5096137;28;20020;-62
2021/12/15 05:42:15;;;;;;;143.10;65.03;;;;;;;;;;5095708;28;20112;-63
2021/12/15 05:44:41;;;;;;;146.38;65.68;;;;;;;;;;5096008;28;20504;-62
2021/12/15 05:47:08;;;;;;;155.88;68.65;;;;;;;;;;5095699;28;20020;-62
2021/12/15 05:49:34;;;;;;;144.63;66.82;;;;;;;;;;5094252;28;20052;-63
2021/12/15 05:52:00;;;;;;;164.38;68.47;;;;;;;;;;5095831;28;20036;-62
2021/12/15 05:54:27;;;;;;;157.27;70.20;;;;;;;;;;5095810;28;20105;-62
2021/12/15 05:56:54;;;;;;;164.35;70.47;;;;;;;;;;5095748;28;20032;-62
2021/12/15 05:59:20;;;;;;;155.13;71.20;;;;;;;;;;5095672;28;20034;-63
2021/12/15 06:01:47;;;;;;;166.60;72.15;;;;;;;;;;5095559;28;20043;-63
2021/12/15 06:04:13;;;;;;;177.70;79.53;;;;;;;;;;5093914;28;20111;-62
2021/12/15 06:06:40;;;;;;;194.98;81.55;;;;;;;;;;5094206;28;20024;-62
2021/12/15 06:09:07;;;;;;;191.20;82.65;;;;;;;;;;5095137;28;20044;-62
2021/12/15 06:11:34;;;;;;;185.65;80.63;;;;;;;;;;5094044;28;20040;-62
2021/12/15 06:14:00;;;;;;;196.38;83.18;;;;;;;;;;5095302;28;20092;-63
2021/12/15 06:16:26;;;;;;;189.48;82.03;;;;;;;;;;5094012;28;20027;-62
2021/12/15 06:18:53;;;;;;;180.35;79.60;;;;;;;;;;5095324;28;20020;-63
2021/12/15 06:21:20;;;;;;;178.57;77.55;;;;;;;;;;5093605;28;20032;-63
2021/12/15 06:23:48;;;;;;;166.45;70.70;;;;;;;;;;5093936;28;20794;-62
2021/12/15 06:26:15;;;;;;;157.60;70.93;;;;;;;;;;5095145;28;20089;-62
2021/12/15 06:28:41;;;;;;;157.48;68.43;;;;;;;;;;5095054;28;20024;-62
2021/12/15 06:31:09;;;;;;;164.55;68.78;;;;;;;;;;5094754;28;20032;-62
2021/12/15 06:33:38;;;;;;;174.45;74.93;;;;;;;;;;5094984;28;20024;-62
2021/12/15 06:36:05;;;;;;;165.00;71.63;;;;;;;;;;5094911;28;20050;-62
2021/12/15 06:38:37;;;;;;;165.25;71.57;;;;;;;;;;5093575;28;20020;-62
2021/12/15 06:41:03;;;;;;;187.90;90.93;;;;;;;;;;5094791;28;20066;-62
2021/12/15 06:43:30;;;;;;;133.35;54.13;;;;;;;;;;5094709;28;20031;-62
2021/12/15 06:59:24;;;;;;;134.35;43.47;;;;;;;;;;5094415;28;20096;-61
2021/12/15 07:01:51;;;;;;;148.80;51.05;;;;;;;;;;5094254;28;20174;-62
2021/12/15 07:04:18;;;;;;;149.35;53.70;;;;;;;;;;5094311;28;20024;-61
2021/12/15 07:06:45;;;;;;;138.25;46.25;;;;;;;;;;5094281;28;20439;-61
2021/12/15 07:09:12;;;;;;;145.88;50.65;;;;;;;;;;5094246;28;20027;-62
2021/12/15 07:11:38;;;;;;;141.32;49.78;;;;;;;;;;5092882;28;20496;-61
2021/12/15 07:14:04;;;;;;;148.93;46.45;;;;;;;;;;5093749;28;20486;-61
2021/12/15 07:16:32;;;;;;;156.82;55.92;;;;;;;;;;5094195;28;20028;-61
2021/12/15 07:19:16;;;;;;;270.70;93.65;;;;;;;;;;5094144;28;20028;-61
2021/12/15 07:21:52;;;;;;;229.35;78.70;;;;;;;;;;5094045;28;20101;-61
2021/12/15 07:24:18;;;;;;;155.52;41.03;;;;;;;;;;5093782;28;20380;-62
2021/12/15 07:26:45;;;;;;;164.20;59.05;;;;;;;;;;5094180;28;20020;-61
2021/12/15 07:29:11;;;;;;;152.27;44.50;;;;;;;;;;5092562;28;20046;-61
2021/12/15 07:31:37;;;;;;;197.82;56.05;;;;;;;;;;5093559;28;20503;-61
2021/12/15 07:34:04;;;;;;;119.57;41.20;;;;;;;;;;5092447;28;20531;-61
2021/12/15 07:36:30;;;;;;;168.50;47.08;;;;;;;;;;5093894;28;20031;-63
2021/12/15 07:38:58;;;;;;;149.25;41.85;;;;;;;;;;5092352;28;20467;-63
2021/12/15 07:41:29;;;;;;;140.93;40.28;;;;;;;;;;5093630;28;20457;-63
2021/12/15 07:44:00;;;;;;;148.65;41.15;;;;;;;;;;5092025;28;20032;-63
2021/12/15 07:46:27;;;;;;;134.43;35.25;;;;;;;;;;5093439;28;20024;-64
2021/12/15 07:48:53;;;;;;;135.75;32.90;;;;;;;;;;5092264;28;20078;-64
2021/12/15 07:51:19;;;;;;;130.75;37.05;;;;;;;;;;5092996;28;20059;-65
2021/12/15 07:53:45;;;;;;;131.27;34.65;;;;;;;;;;5092245;28;20115;-64
2021/12/15 07:56:12;;;;;;;136.15;38.42;;;;;;;;;;5093109;28;20032;-63
2021/12/15 07:58:39;;;;;;;196.27;54.15;;;;;;;;;;5093500;28;20036;-63
2021/12/15 08:01:06;;;;;;;177.15;48.17;;;;;;;;;;5091911;28;20036;-63
2021/12/15 08:03:33;;;;;;;157.00;44.88;;;;;;;;;;5092003;28;20028;-63
2021/12/15 08:06:00;;;;;;;150.48;36.53;;;;;;;;;;5092395;28;20024;-63
2021/12/15 08:08:26;;;;;;;171.57;45.20;;;;;;;;;;5092154;28;20055;-63
2021/12/15 08:10:56;;;;;;;189.63;45.22;;;;;;;;;;5091757;28;20388;-64
2021/12/15 08:13:31;;;;;;;156.07;46.55;;;;;;;;;;5093159;28;20116;-63
2021/12/15 08:15:57;;;;;;;158.85;42.70;;;;;;;;;;5092992;28;20024;-63
2021/12/15 08:18:23;;;;;;;188.35;44.25;;;;;;;;;;5093095;28;20032;-64
2021/12/15 08:20:50;;;;;;;139.45;36.75;;;;;;;;;;5090830;28;20122;-63
2021/12/15 08:23:17;;;;;;;128.23;34.47;;;;;;;;;;5092253;28;20067;-63
2021/12/15 08:25:43;;;;;;;167.52;59.90;;;;;;;;;;5092425;28;20105;-63
2021/12/15 08:28:10;;;;;;;180.23;55.75;;;;;;;;;;5092697;28;20024;-63
2021/12/15 08:30:38;;;;;;;169.57;46.83;;;;;;;;;;5092876;28;20020;-62
2021/12/15 08:33:05;;;;;;;195.05;42.00;;;;;;;;;;5091483;28;20123;-64
2021/12/15 08:35:34;;;;;;;193.25;50.90;;;;;;;;;;5091454;28;20126;-63
2021/12/15 08:38:00;;;;;;;160.27;41.72;;;;;;;;;;5092549;28;20407;-66
2021/12/15 08:40:27;;;;;;;145.77;39.90;;;;;;;;;;5092587;28;20028;-63
2021/12/15 08:42:54;;;;;;;121.45;38.03;;;;;;;;;;5092692;28;20059;-65
2021/12/15 08:45:21;;;;;;;164.55;48.47;;;;;;;;;;5092376;28;20116;-63
2021/12/15 08:47:47;;;;;;;144.27;43.80;;;;;;;;;;5091267;28;20028;-63
2021/12/15 08:50:16;;;;;;;148.48;45.05;;;;;;;;;;5090587;28;20478;-62
2021/12/15 08:52:42;;;;;;;138.48;41.50;;;;;;;;;;5092554;28;20040;-62
2021/12/15 08:55:09;;;;;;;140.48;42.35;;;;;;;;;;5091329;28;20111;-62
2021/12/15 08:57:36;;;;;;;147.60;42.88;;;;;;;;;;5093003;28;20016;-62
2021/12/15 09:00:07;;;;;;;160.75;58.22;;;;;;;;;;5092240;28;20032;-62
2021/12/15 09:02:34;;;;;;;130.98;36.08;;;;;;;;;;5092412;28;20032;-65
2021/12/15 09:05:01;;;;;;;126.40;40.58;;;;;;;;;;5091957;28;20033;-61
2021/12/15 09:07:27;;;;;;;162.43;48.65;;;;;;;;;;5092758;28;20380;-64
2021/12/15 09:09:53;;;;;;;194.00;60.20;;;;;;;;;;5092680;28;20433;-64
2021/12/15 09:12:19;;;;;;;164.48;48.22;;;;;;;;;;5090999;28;20111;-62
2021/12/15 09:14:46;;;;;;;172.05;56.47;;;;;;;;;;5092124;28;20119;-62
2021/12/15 09:17:13;;;;;;;198.57;60.22;;;;;;;;;;5091051;28;20032;-62
2021/12/15 09:19:39;;;;;;;177.10;60.85;;;;;;;;;;5092162;28;20089;-64
2021/12/15 09:22:06;;;;;;;219.80;69.88;;;;;;;;;;5091883;28;20518;-62
2021/12/15 09:24:32;;;;;;;186.63;66.57;;;;;;;;;;5072083;28;20025;-62
2021/12/15 09:26:58;;;;;;;131.20;42.33;;;;;;;;;;5071926;28;20448;-64
2021/12/15 09:29:25;;;;;;;167.98;49.42;;;;;;;;;;5072184;28;20056;-64
2021/12/15 09:31:53;;;;;;;201.95;67.05;;;;;;;;;;5072154;28;20062;-64
2021/12/15 09:34:20;;;;;;;150.82;44.08;;;;;;;;;;5070729;28;20032;-63
2021/12/15 09:36:48;;;;;;;151.35;45.58;;;;;;;;;;5072114;28;20033;-63
2021/12/15 09:39:15;;;;;;;183.68;57.60;;;;;;;;;;5075449;28;20116;-62
2021/12/15 09:41:42;;;;;;;179.00;59.88;;;;;;;;;;5093911;28;20032;-62
2021/12/15 09:44:09;;;;;;;179.13;60.78;;;;;;;;;;5094466;28;20029;-62
2021/12/15 09:46:42;;;;;;;129.52;47.75;;;;;;;;;;5095547;28;20071;-62
2021/12/15 09:57:46;;;;;;;93.28;33.90;;;;;;;;;;5095450;28;20035;-61
2021/12/15 10:03:04;;;;;;;96.72;33.50;;;;;;;;;;5094387;28;20400;-66
2021/12/15 10:05:58;;;;;;;100.72;33.92;;;;;;;;;;5092102;28;20031;-64
2021/12/15 10:11:44;;;;;;;129.05;46.30;;;;;;;;;;5095239;28;20038;-62
2021/12/15 10:19:41;;;;;;;95.07;32.22;;;;;;;;;;5095257;28;20436;-64
2021/12/15 10:22:15;;;;;;;111.00;39.28;;;;;;;;;;5093491;28;20533;-64
2021/12/15 10:24:52;;;;;;;94.93;30.42;;;;;;;;;;5094033;28;20024;-64
2021/12/15 10:27:38;;;;;;;86.20;30.65;;;;;;;;;;5093781;28;20380;-64
2021/12/15 10:30:08;;;;;;;99.00;32.47;;;;;;;;;;5075955;28;20040;-64
2021/12/15 10:32:35;;;;;;;91.90;31.38;;;;;;;;;;5094743;28;20104;-64
2021/12/15 10:35:05;;;;;;;96.07;34.60;;;;;;;;;;5094622;28;20024;-64
2021/12/15 10:37:31;;;;;;;83.75;29.95;;;;;;;;;;5094776;28;20058;-64
2021/12/15 10:40:16;;;;;;;82.50;31.10;;;;;;;;;;5095073;28;20151;-63
2021/12/15 10:42:42;;;;;;;76.38;28.63;;;;;;;;;;5094581;28;20115;-64
2021/12/15 10:45:10;;;;;;;81.38;30.58;;;;;;;;;;5094598;28;20067;-64
2021/12/15 10:47:50;;;;;;;84.25;33.00;;;;;;;;;;5094569;28;20116;-63
2021/12/15 10:50:19;;;;;;;90.82;36.90;;;;;;;;;;5093572;28;20059;-64
2021/12/15 10:52:53;;;;;;;86.22;31.65;;;;;;;;;;5092048;28;20036;-63
2021/12/15 10:55:19;;;;;;;92.70;32.90;;;;;;;;;;5092882;28;20114;-63
2021/12/15 10:57:46;;;;;;;86.85;33.47;;;;;;;;;;5094331;28;20388;-62
2021/12/15 11:00:14;;;;;;;82.93;32.22;;;;;;;;;;5094430;28;20046;-63
2021/12/15 11:02:40;;;;;;;88.80;35.83;;;;;;;;;;5094056;28;20139;-63
2021/12/15 11:05:07;;;;;;;89.78;30.40;;;;;;;;;;5094339;28;20028;-63
2021/12/15 11:07:36;;;;;;;78.03;28.10;;;;;;;;;;5091294;28;20096;-63
2021/12/15 11:10:05;;;;;;;78.40;29.23;;;;;;;;;;5093228;28;20032;-64
2021/12/15 11:12:43;;;;;;;75.03;26.75;;;;;;;;;;5094165;28;20107;-64
2021/12/15 11:15:11;;;;;;;83.80;30.05;;;;;;;;;;5093992;28;20473;-63
2021/12/15 11:17:40;;;;;;;93.53;34.45;;;;;;;;;;5094230;28;20035;-62
2021/12/15 11:20:19;;;;;;;99.05;33.72;;;;;;;;;;5094112;28;20027;-63
2021/12/15 11:22:45;;;;;;;107.53;34.83;;;;;;;;;;5092534;28;20055;-63
2021/12/15 11:25:17;;;;;;;105.43;34.15;;;;;;;;;;5092291;28;20034;-63
2021/12/15 11:27:43;;;;;;;;;;;;;;;;;;5091163;28;20027;-63
2021/12/15 11:30:15;;;;;;;108.93;39.05;;;;;;;;;;5093599;28;19908;-63
2021/12/15 11:32:46;;;;;;;91.80;33.25;;;;;;;;;;5093763;28;20035;-63
2021/12/15 11:35:16;;;;;;;100.97;34.53;;;;;;;;;;5093561;28;20453;-63
2021/12/15 11:37:45;;;;;;;123.97;40.47;;;;;;;;;;5093277;28;20527;-63
2021/12/15 11:40:11;;;;;;;102.22;37.17;;;;;;;;;;5093632;28;20064;-62
2021/12/15 11:42:41;;;;;;;92.43;33.08;;;;;;;;;;5093154;28;20068;-63
2021/12/15 11:45:08;;;;;;;96.70;32.05;;;;;;;;;;5090176;28;20031;-62
2021/12/15 11:47:36;;;;;;;76.03;29.20;;;;;;;;;;5092186;28;20085;-62
2021/12/15 11:50:09;;;;;;;87.07;36.58;;;;;;;;;;5093398;28;20040;-62
2021/12/15 11:52:41;;;;;;;86.85;31.90;;;;;;;;;;5093413;28;20101;-62
2021/12/15 11:55:20;;;;;;;98.40;32.78;;;;;;;;;;5093281;28;20020;-62
2021/12/15 11:57:46;;;;;;;100.00;33.33;;;;;;;;;;5093298;28;20028;-62
2021/12/15 12:00:15;;;;;;;96.88;35.10;;;;;;;;;;5093256;28;20060;-63
2021/12/15 12:02:43;;;;;;;99.88;33.55;;;;;;;;;;5093168;28;20036;-63
2021/12/15 12:05:10;;;;;;;120.07;38.95;;;;;;;;;;5093221;28;20111;-62
2021/12/15 12:07:38;;;;;;;113.20;39.67;;;;;;;;;;5091584;28;20047;-62
2021/12/15 12:10:07;;;;;;;108.68;34.75;;;;;;;;;;5091881;28;20082;-62
2021/12/15 12:12:38;;;;;;;133.65;42.72;;;;;;;;;;5093234;28;20468;-63
2021/12/15 12:15:04;;;;;;;;;;;;;;;;;;5093540;28;20024;-63
2021/12/15 12:17:33;;;;;;;120.53;34.88;;;;;;;;;;5093081;28;19911;-63
2021/12/15 12:20:19;;;;;;;128.70;40.75;;;;;;;;;;5093078;28;20518;-63
2021/12/15 12:22:46;;;;;;;135.27;43.20;;;;;;;;;;5074148;28;20476;-63
2021/12/15 12:25:39;;;;;;;148.98;44.42;;;;;;;;;;5092919;28;20028;-63
2021/12/15 12:28:07;;;;;;;164.30;46.65;;;;;;;;;;5088960;28;20032;-63
2021/12/15 12:30:37;;;;;;;156.57;52.30;;;;;;;;;;5092618;28;20028;-63
2021/12/15 12:33:08;;;;;;;160.35;52.50;;;;;;;;;;5092948;28;20103;-63
2021/12/15 12:35:35;;;;;;;141.55;46.60;;;;;;;;;;5092089;28;20345;-63
2021/12/15 12:38:06;;;;;;;141.25;45.80;;;;;;;;;;5092920;28;20027;-63
2021/12/15 12:40:34;;;;;;;131.38;45.97;;;;;;;;;;5091506;28;20048;-64
2021/12/15 12:43:25;;;;;;;148.90;47.88;;;;;;;;;;5092697;28;20096;-63
2021/12/15 12:45:56;;;;;;;181.35;52.97;;;;;;;;;;5092833;28;20115;-63
2021/12/15 12:49:24;;;;;;;145.07;48.70;;;;;;;;;;5092843;28;20354;-63
2021/12/15 12:59:42;;;;;;;119.60;44.50;;;;;;;;;;5092498;28;20116;-63
2021/12/15 13:02:37;;;;;;;129.57;44.90;;;;;;;;;;5091129;28;20047;-63
2021/12/15 13:05:04;;;;;;;113.35;44.72;;;;;;;;;;5091258;28;20035;-63
2021/12/15 13:07:47;;;;;;;123.47;48.30;;;;;;;;;;5092619;28;20107;-62
2021/12/15 13:10:14;;;;;;;119.60;46.83;;;;;;;;;;5092628;28;20028;-64
2021/12/15 13:12:47;;;;;;;121.30;49.97;;;;;;;;;;5092270;28;20559;-63
2021/12/15 13:15:16;;;;;;;115.68;47.28;;;;;;;;;;5096364;28;20103;-62
2021/12/15 13:17:54;;;;;;;136.77;53.90;;;;;;;;;;5096302;28;20099;-64
2021/12/15 13:20:24;;;;;;;111.75;45.40;;;;;;;;;;5096368;28;20035;-63
2021/12/15 13:23:07;;;;;;;106.18;44.78;;;;;;;;;;5096154;28;20047;-63
2021/12/15 13:31:26;;;;;;;106.25;46.50;;;;;;;;;;5053351;28;20040;-63
2021/12/15 13:33:53;;;;;;;115.30;47.60;;;;;;;;;;5053275;28;20045;-63
2021/12/15 13:36:22;;;;;;;115.00;49.17;;;;;;;;;;5053347;28;20033;-63
2021/12/15 13:38:54;;;;;;;142.63;58.25;;;;;;;;;;5036374;28;20030;-62
2021/12/15 13:41:40;;;;;;;157.90;65.47;;;;;;;;;;5036268;28;20049;-62
2021/12/15 13:44:27;;;;;;;195.27;82.35;;;;;;;;;;5053112;28;20509;-63
2021/12/15 13:46:59;;;;;;;174.73;81.75;;;;;;;;;;5052725;28;20061;-62
2021/12/15 13:49:26;;;;;;;178.07;85.85;;;;;;;;;;5052716;28;20492;-62
2021/12/15 13:52:10;;;;;;;173.63;83.55;;;;;;;;;;5053075;28;20390;-63
2021/12/15 13:54:36;;;;;;;172.57;81.28;;;;;;;;;;5052987;28;20594;-63
2021/12/15 13:57:14;;;;;;;150.25;66.50;;;;;;;;;;5032718;28;20535;-63
2021/12/15 13:59:50;;;;;;;144.18;63.10;;;;;;;;;;5040232;28;20044;-62
2021/12/15 14:02:30;;;;;;;142.10;64.30;;;;;;;;;;5024230;28;20029;-63
2021/12/15 14:05:28;;;;;;;144.07;64.55;;;;;;;;;;5047618;28;20482;-63
2021/12/15 14:07:59;;;;;;;150.98;67.30;;;;;;;;;;4991104;28;20417;-63
2021/12/15 14:10:25;;;;;;;152.32;68.25;;;;;;;;;;5012983;28;20058;-65
2021/12/15 14:12:52;;;;;;;164.48;76.47;;;;;;;;;;5012982;28;20069;-63
2021/12/15 14:15:28;;;;;;;164.35;75.80;;;;;;;;;;5012822;28;20052;-63
2021/12/15 14:17:58;;;;;;;163.45;73.32;;;;;;;;;;5012683;28;20053;-62
2021/12/15 14:20:24;;;;;;;212.52;94.50;;;;;;;;;;5012894;28;20108;-63
2021/12/15 14:22:57;;;;;;;181.77;82.70;;;;;;;;;;5012585;28;20050;-62
2021/12/15 14:25:23;;;;;;;156.57;71.90;;;;;;;;;;5011657;28;20034;-63
2021/12/15 14:27:49;;;;;;;146.27;69.15;;;;;;;;;;5029212;28;20030;-63
2021/12/15 14:30:17;;;;;;;161.10;75.20;;;;;;;;;;5029220;28;20573;-63
2021/12/15 14:32:44;;;;;;;160.60;75.88;;;;;;;;;;5012689;28;20141;-63
2021/12/15 14:35:36;;;;;;;171.60;79.07;;;;;;;;;;5012684;28;20443;-63
2021/12/15 14:38:02;;;;;;;;;;;;;;;;;;5011009;28;20044;-63
2021/12/15 14:40:28;;;;;;;182.25;84.70;;;;;;;;;;5011164;28;19933;-63
2021/12/15 14:42:54;;;;;;;162.38;77.65;;;;;;;;;;5034083;28;20119;-63
2021/12/15 14:45:21;;;;;;;174.52;82.57;;;;;;;;;;5095051;28;20837;-63
2021/12/15 14:47:47;;;;;;;154.27;74.40;;;;;;;;;;5095090;28;20028;-63
2021/12/15 14:50:14;;;;;;;175.70;82.32;;;;;;;;;;5094439;28;20131;-63
2021/12/15 14:52:45;;;;;;;171.38;79.72;;;;;;;;;;5095034;28;20461;-63
2021/12/15 14:55:23;;;;;;;171.30;80.93;;;;;;;;;;5094429;28;20378;-63
2021/12/15 14:57:49;;;;;;;179.52;84.15;;;;;;;;;;5094635;28;20020;-63
2021/12/15 15:00:17;;;;;;;181.70;83.72;;;;;;;;;;5094799;28;20020;-63
2021/12/15 15:02:49;;;;;;;192.35;90.20;;;;;;;;;;5092883;28;20474;-64
2021/12/15 15:05:18;;;;;;;206.68;92.80;;;;;;;;;;5093161;28;20032;-64
2021/12/15 15:07:52;;;;;;;196.73;86.88;;;;;;;;;;5094573;28;20387;-64
2021/12/15 15:10:23;;;;;;;198.02;89.40;;;;;;;;;;5094555;28;20030;-64
2021/12/15 15:12:50;;;;;;;181.52;85.88;;;;;;;;;;5094386;28;20052;-64
2021/12/15 15:15:25;;;;;;;211.23;101.78;;;;;;;;;;5094209;28;20023;-63
2021/12/15 15:18:01;;;;;;;247.60;117.78;;;;;;;;;;5094264;28;20016;-64
2021/12/15 15:20:30;;;;;;;261.65;125.43;;;;;;;;;;5094173;28;20088;-63
2021/12/15 15:22:58;;;;;;;292.92;138.52;;;;;;;;;;5092623;28;20166;-63
2021/12/15 15:25:26;;;;;;;356.50;153.35;;;;;;;;;;5094310;28;20060;-63
2021/12/15 15:27:55;;;;;;;288.23;134.25;;;;;;;;;;5094009;28;20028;-63